Weather reports worldwide

Advertisment
Bielsa, Spain (8103): temperature & dewpoint: 06.12.2018 00:00:00 - 12.12.2018 00:00:00 (CET)Bielsa, Spain (8103): wind speed & gusts: 06.12.2018 00:00:00 - 12.12.2018 00:00:00 (CET)Bielsa, Spain (8103): wind direction: 06.12.2018 00:00:00 - 12.12.2018 00:00:00 (CET)Bielsa, Spain (8103): visibility: 06.12.2018 00:00:00 - 12.12.2018 00:00:00 (CET)Bielsa, Spain (8103): sunshine duration: 06.12.2018 00:00:00 - 12.12.2018 00:00:00 (CET)Bielsa, Spain (8103): precipitation: 06.12.2018 00:00:00 - 12.12.2018 00:00:00 (CET)
Date & Time tt [°C] td [°C] ff [km/h] ff [kn] fx [km/h] fx [kn] dd vv [km] sd [min] rr [mm]
12.12.2018 00:00:00 - - - - - - - - - -
11.12.2018 23:00:00 1,2 -0,5 0 0 16 9 N 20 0 0,0
11.12.2018 22:00:00 0,9 -0,5 0 0 13 7 N 20 0 0,0
11.12.2018 21:00:00 1,0 -0,5 3 1 14 7 WNW 20 0 0,0
11.12.2018 20:00:00 1,4 -0,5 3 2 16 9 WNW 20 0 0,0
11.12.2018 19:00:00 2,2 0,0 4 2 14 7 WNW 20 0 -
11.12.2018 18:00:00 3,3 0,9 3 1 12 7 NNW 20 0 0,0
11.12.2018 17:00:00 5,2 1,7 5 3 14 7 NW 20 0 0,0
11.12.2018 16:00:00 6,9 2,1 3 2 15 8 NW 20 0 0,0
11.12.2018 15:00:00 8,4 2,9 3 1 5 3 NNW 20 0 0,0
11.12.2018 14:00:00 9,7 2,3 0 0 17 9 N 20 28 0,0
11.12.2018 13:00:00 11,0 1,3 3 2 11 6 S 20 60 -
11.12.2018 12:00:00 11,1 0,2 5 3 16 9 ESE 20 60 0,0
11.12.2018 11:00:00 8,6 0,9 2 1 12 6 WSW 20 60 0,0
11.12.2018 10:00:00 4,0 0,0 3 2 16 9 WNW 20 28 0,0
11.12.2018 09:00:00 -0,5 -2,0 0 0 14 8 N 20 0 0,0
11.12.2018 08:00:00 -0,5 -2,2 1 1 15 8 N 20 0 0,0
11.12.2018 07:00:00 0,0 -2,2 1 1 8 4 N 20 0 -
11.12.2018 06:00:00 0,2 -2,7 2 1 11 6 NNW 20 0 0,0
11.12.2018 05:00:00 0,7 -3,0 5 3 14 8 WNW 20 0 0,0
11.12.2018 04:00:00 0,7 -3,3 4 2 17 9 WNW 20 0 0,0
11.12.2018 03:00:00 0,1 -3,0 3 2 14 7 WNW 20 0 0,0
11.12.2018 02:00:00 0,2 -3,9 1 1 19 11 NNE 20 0 0,0
11.12.2018 01:00:00 0,5 -4,2 4 2 13 7 WNW 20 0 -
11.12.2018 00:00:00 1,4 -4,2 6 4 16 8 NW 20 0 0,0
10.12.2018 23:00:00 1,9 -4,8 3 2 15 8 N 20 0 0,0
10.12.2018 22:00:00 2,9 -6,4 6 3 17 9 WNW 20 0 0,0
10.12.2018 21:00:00 1,9 -4,8 3 2 14 8 NW 20 0 0,0
10.12.2018 20:00:00 2,7 -4,2 3 2 14 8 NNW 20 0 0,0
10.12.2018 19:00:00 3,6 -3,9 3 2 17 9 WNW 20 0 -
10.12.2018 18:00:00 6,1 -5,4 4 2 10 5 NNW 20 0 0,0
10.12.2018 17:00:00 9,3 -6,0 5 3 22 12 NW 20 0 0,0
10.12.2018 16:00:00 11,9 -7,5 11 6 33 18 NW 20 0 0,0
10.12.2018 15:00:00 12,9 -10,3 16 8 34 18 NW 20 0 0,0
10.12.2018 14:00:00 13,3 -11,2 16 9 34 18 NW 20 28 0,0
10.12.2018 13:00:00 15,2 -10,3 13 7 31 17 WNW 20 60 -
10.12.2018 12:00:00 15,6 -11,7 9 5 31 17 WNW 20 60 0,0
10.12.2018 11:00:00 14,1 -15,1 17 9 30 16 NW 20 60 0,0
10.12.2018 10:00:00 10,5 -9,9 10 5 23 12 NW 20 28 0,0
10.12.2018 09:00:00 5,4 -9,9 7 4 18 10 WNW 20 0 0,0
10.12.2018 08:00:00 5,1 -10,8 6 4 19 10 WNW 20 0 0,0
10.12.2018 07:00:00 5,4 -10,3 8 5 22 12 NW 20 0 -
10.12.2018 06:00:00 4,9 -9,9 6 3 14 8 NW 20 0 0,0
10.12.2018 05:00:00 4,0 -6,4 4 2 8 5 NNW 20 0 0,0
10.12.2018 04:00:00 5,8 -9,4 3 1 16 9 S 20 0 0,0
10.12.2018 03:00:00 9,9 -13,3 7 4 21 11 NNW 20 0 0,0
10.12.2018 02:00:00 10,1 -12,8 8 4 39 21 NNW 20 0 0,0
10.12.2018 01:00:00 11,8 -13,3 13 7 37 20 WNW 20 0 -
10.12.2018 00:00:00 11,6 -11,2 10 6 32 18 NW 20 0 0,0
09.12.2018 23:00:00 11,7 -11,2 15 8 35 19 NW 20 0 0,0
09.12.2018 22:00:00 11,2 -8,2 14 8 56 30 NW 20 0 0,0
09.12.2018 21:00:00 11,2 -7,5 24 13 53 28 NW 20 0 0,0
09.12.2018 20:00:00 11,4 -9,0 12 7 50 27 NW 20 0 0,0
09.12.2018 19:00:00 11,6 -7,8 24 13 56 30 NW 20 0 -
09.12.2018 18:00:00 11,9 -8,2 19 10 48 26 NW 20 0 0,0
09.12.2018 17:00:00 12,6 -8,2 16 9 55 30 NNW 20 0 0,0
09.12.2018 16:00:00 14,1 -8,6 16 9 51 28 NNW 20 0 0,0
09.12.2018 15:00:00 15,5 -10,3 20 11 46 25 NW 20 0 0,0
09.12.2018 14:00:00 15,2 -11,2 14 8 50 27 NNW 20 28 0,0
09.12.2018 13:00:00 17,7 -10,3 16 9 39 21 N 20 60 -
09.12.2018 12:00:00 17,0 -8,2 5 3 29 16 NW 20 60 0,0
09.12.2018 11:00:00 13,7 -5,1 4 2 20 11 E 20 60 0,0
09.12.2018 10:00:00 8,6 -1,4 2 1 19 10 WSW 20 29 0,0
09.12.2018 09:00:00 4,9 -3,3 3 2 26 14 NNW 20 0 0,0
09.12.2018 08:00:00 5,6 -4,2 11 6 22 12 WNW 20 0 0,0
09.12.2018 07:00:00 4,7 -2,7 6 3 21 12 NW 20 0 -
09.12.2018 06:00:00 5,4 -2,2 7 4 22 12 WNW 20 0 0,0
09.12.2018 05:00:00 6,0 -1,2 10 6 26 14 WNW 20 0 0,0
09.12.2018 04:00:00 6,4 -0,3 12 6 27 14 NW 20 0 0,0
09.12.2018 03:00:00 6,6 0,2 11 6 23 12 NW 20 0 0,0
09.12.2018 02:00:00 6,4 0,9 12 6 19 11 NW 20 0 0,0
09.12.2018 01:00:00 0,9 0,9 3 2 8 5 NNW 20 0 -
09.12.2018 00:00:00 1,3 0,9 1 1 6 3 NNW 20 0 0,0
08.12.2018 23:00:00 1,8 1,1 2 1 15 8 WNW 20 0 0,0
08.12.2018 22:00:00 2,9 1,7 3 2 7 4 NNW 20 0 0,0
08.12.2018 21:00:00 3,3 1,9 2 1 5 3 S 20 0 0,0
08.12.2018 20:00:00 3,9 1,9 1 1 5 3 SSE 20 0 0,0
08.12.2018 19:00:00 4,4 1,9 4 2 14 8 NNW 20 0 -
08.12.2018 18:00:00 4,9 2,1 3 2 5 3 NNW 20 0 0,0
08.12.2018 17:00:00 5,9 2,1 4 2 9 5 SE 20 0 0,0
08.12.2018 16:00:00 7,0 1,7 2 1 13 7 S 20 0 0,0
08.12.2018 15:00:00 6,9 1,7 3 2 8 4 NW 20 0 0,0
08.12.2018 14:00:00 8,2 0,9 3 2 18 10 NW 20 28 0,0
08.12.2018 13:00:00 11,5 -1,7 7 4 27 14 SSE 20 60 -
08.12.2018 12:00:00 10,6 -2,2 7 4 18 10 SE 20 60 0,0
08.12.2018 11:00:00 9,8 -3,3 6 3 17 9 E 20 60 0,0
08.12.2018 10:00:00 9,2 -3,3 4 2 20 11 SE 20 30 0,0
08.12.2018 09:00:00 6,6 -3,9 10 5 24 13 NNW 20 0 0,0
08.12.2018 08:00:00 7,4 -4,8 13 7 38 21 NW 20 0 0,0
08.12.2018 07:00:00 7,7 -4,8 20 11 40 21 NW 20 0 -
08.12.2018 06:00:00 7,5 -4,2 11 6 38 21 NW 20 0 0,0
08.12.2018 05:00:00 8,0 -7,5 16 9 39 21 NW 20 0 0,0
08.12.2018 04:00:00 8,3 -6,0 22 12 47 26 NW 20 0 0,0
08.12.2018 03:00:00 9,1 -6,7 16 8 37 20 NNW 20 0 0,0
08.12.2018 02:00:00 9,1 -6,0 13 7 36 19 NNW 20 0 0,0
08.12.2018 01:00:00 9,7 -4,8 22 12 45 25 NW 20 0 -
08.12.2018 00:00:00 8,8 -0,5 11 6 32 18 NNW 20 0 0,0
07.12.2018 23:00:00 10,4 0,6 17 9 40 21 NNW 20 0 0,0
07.12.2018 22:00:00 9,5 1,9 9 5 23 12 NNW 20 0 0,0
07.12.2018 21:00:00 8,0 2,1 11 6 21 11 NW 20 0 0,0
07.12.2018 20:00:00 2,1 1,5 6 3 11 6 NW 17 0 0,0
07.12.2018 19:00:00 1,8 0,4 3 2 9 5 NNW 20 0 -
07.12.2018 18:00:00 2,9 0,6 3 1 12 7 NNW 20 0 0,0
07.12.2018 17:00:00 3,7 0,4 5 3 12 6 NW 20 0 0,0
07.12.2018 16:00:00 4,7 -0,3 4 2 16 8 NW 20 0 0,0
07.12.2018 15:00:00 5,6 0,0 4 2 12 6 WNW 20 0 0,0
07.12.2018 14:00:00 6,5 0,4 6 3 11 6 NNW 20 28 0,0
07.12.2018 13:00:00 12,2 -1,0 7 4 19 11 SE 20 60 -
07.12.2018 12:00:00 10,3 0,6 3 1 16 9 SSW 20 60 0,0
07.12.2018 11:00:00 7,7 -1,7 3 2 7 4 W 20 60 0,0
07.12.2018 10:00:00 3,5 -1,2 3 1 14 7 WSW 20 30 0,0
07.12.2018 09:00:00 -0,9 -3,0 2 1 10 6 NNE 20 0 0,0
07.12.2018 08:00:00 -0,7 -3,3 6 3 16 9 WNW 20 0 0,0
07.12.2018 07:00:00 -1,1 -2,7 3 2 14 7 NW 20 0 -
07.12.2018 06:00:00 -0,5 -2,7 4 2 11 6 WNW 20 0 0,0
07.12.2018 05:00:00 -0,3 -2,5 3 2 14 7 WNW 20 0 0,0
07.12.2018 04:00:00 1,3 -2,5 5 3 24 13 WNW 20 0 0,0
07.12.2018 03:00:00 0,3 -1,7 3 2 19 10 NNW 20 0 0,0
07.12.2018 02:00:00 0,6 -1,2 5 3 20 11 NNW 20 0 0,0
07.12.2018 01:00:00 0,7 -1,7 4 2 13 7 WNW 20 0 -
07.12.2018 00:00:00 0,4 -1,2 1 1 15 8 NW 20 0 0,0
06.12.2018 23:00:00 0,7 -1,0 3 1 16 8 NW 20 0 0,0
06.12.2018 22:00:00 1,1 -0,5 1 1 9 5 NW 20 0 0,0
06.12.2018 21:00:00 1,6 0,0 3 2 13 7 WNW 20 0 0,0
06.12.2018 20:00:00 2,3 0,9 2 1 10 6 NW 20 0 0,0
06.12.2018 19:00:00 3,4 1,1 5 3 14 8 NW 20 0 -
06.12.2018 18:00:00 3,8 2,1 3 2 13 7 NW 20 0 0,0
06.12.2018 17:00:00 5,5 2,3 1 1 10 5 NNE 20 0 0,0
06.12.2018 16:00:00 7,1 2,9 4 2 13 7 NW 20 0 0,0
06.12.2018 15:00:00 8,0 3,6 4 2 11 6 NW 20 0 0,0
06.12.2018 14:00:00 10,8 3,4 4 2 16 9 NNW 20 29 0,0
06.12.2018 13:00:00 15,3 4,1 4 2 16 9 SSE 20 60 -
06.12.2018 12:00:00 15,2 2,7 6 4 16 8 ESE 20 60 0,0
06.12.2018 11:00:00 12,9 3,2 2 1 8 5 WSW 20 60 0,0
06.12.2018 10:00:00 8,2 4,3 1 1 10 5 SW 20 31 0,0
06.12.2018 09:00:00 2,2 1,3 4 2 11 6 SSE 20 0 0,0
06.12.2018 08:00:00 2,5 1,3 3 2 10 6 NW 20 0 0,0
06.12.2018 07:00:00 2,4 1,1 3 1 13 7 NW 20 0 -
06.12.2018 06:00:00 3,5 2,1 4 2 10 6 NW 20 0 0,0
06.12.2018 05:00:00 4,2 2,3 5 3 10 5 NNW 20 0 0,0
06.12.2018 04:00:00 4,7 2,5 3 1 13 7 NNW 20 0 0,0
06.12.2018 03:00:00 6,3 2,1 5 3 18 10 WNW 20 0 0,0
06.12.2018 02:00:00 5,1 1,7 5 3 15 8 WNW 20 0 0,0
06.12.2018 01:00:00 5,7 1,1 6 3 22 12 NW 20 0 -
06.12.2018 00:00:00 4,7 1,5 8 4 18 10 WNW 20 0 0,0

tt = temperature
td = dewpoint
ff = wind speed
fx = gusts
dd = wind direction
vv = visibility
sd = sunshine duration
rr = precipitation

Next stations